Time;durP1;ratioP1;P1;durP2;ratioP2;P2;SDS_P1;SDS_P2;PMS_P1;PMS_P2;Temp;Humidity;BMP_temperature;BMP_pressure;BME280_temperature;BME280_humidity;BME280_pressure;Samples;Min_cycle;Max_cycle;Signal;HPM_P1;HPM_P2
2022/03/26 00:02:06;;;;;;;128.27;65.38;;;7.60;99.90;;;;;;5033213;28;20045;-68
2022/03/26 00:04:32;;;;;;;123.60;64.53;;;7.50;99.90;;;;;;5033174;28;20041;-67
2022/03/26 00:06:57;;;;;;;127.57;66.78;;;7.60;99.90;;;;;;5033768;28;20049;-68
2022/03/26 00:09:23;;;;;;;113.60;60.53;;;7.50;99.90;;;;;;5033921;28;20029;-68
2022/03/26 00:11:48;;;;;;;116.35;59.10;;;7.50;99.90;;;;;;5034119;28;20128;-68
2022/03/26 00:14:14;;;;;;;117.75;61.08;;;7.50;99.90;;;;;;5032668;28;20073;-68
2022/03/26 00:16:40;;;;;;;113.43;60.10;;;7.40;99.90;;;;;;5032249;28;20088;-68
2022/03/26 00:19:05;;;;;;;121.82;63.65;;;7.40;99.90;;;;;;5033715;28;20052;-68
2022/03/26 00:21:32;;;;;;;125.55;62.92;;;7.40;99.90;;;;;;5033834;28;20406;-68
2022/03/26 00:23:57;;;;;;;122.40;68.40;;;7.40;99.90;;;;;;5032490;28;20088;-68
2022/03/26 00:26:23;;;;;;;124.82;62.63;;;7.40;99.90;;;;;;5032431;28;20041;-68
2022/03/26 00:28:48;;;;;;;120.95;63.42;;;7.30;99.90;;;;;;5033799;28;20033;-68
2022/03/26 00:31:14;;;;;;;118.93;61.13;;;7.30;99.90;;;;;;5033690;28;20099;-68
2022/03/26 00:33:42;;;;;;;121.03;62.88;;;7.30;99.90;;;;;;5033103;28;20040;-68
2022/03/26 00:36:08;;;;;;;120.55;65.22;;;7.30;99.90;;;;;;5033118;28;20051;-68
2022/03/26 00:38:34;;;;;;;123.25;65.88;;;7.20;99.90;;;;;;5033760;28;20390;-68
2022/03/26 00:41:00;;;;;;;126.05;66.65;;;7.20;99.90;;;;;;5033457;28;20124;-68
2022/03/26 00:43:25;;;;;;;132.15;66.22;;;7.20;99.90;;;;;;5033625;28;20076;-68
2022/03/26 00:45:51;;;;;;;135.23;69.80;;;7.10;99.90;;;;;;5033134;28;20506;-68
2022/03/26 00:48:17;;;;;;;137.35;70.53;;;7.10;99.90;;;;;;5033371;28;20045;-68
2022/03/26 00:50:43;;;;;;;149.38;72.53;;;7.10;99.90;;;;;;5033464;28;20037;-68
2022/03/26 00:53:09;;;;;;;139.15;70.47;;;7.00;99.90;;;;;;5033814;28;20099;-68
2022/03/26 00:55:35;;;;;;;139.80;73.13;;;7.00;99.90;;;;;;5033274;28;20033;-68
2022/03/26 00:58:00;;;;;;;132.18;68.95;;;7.00;99.90;;;;;;5033420;28;20112;-68
2022/03/26 01:00:27;;;;;;;153.88;74.13;;;7.00;99.90;;;;;;5032369;28;20041;-68
2022/03/26 01:02:53;;;;;;;141.82;71.43;;;7.00;99.90;;;;;;5033298;28;20389;-68
2022/03/26 01:05:18;;;;;;;144.63;73.50;;;7.00;99.90;;;;;;5031737;28;20045;-68
2022/03/26 01:07:46;;;;;;;145.27;74.43;;;6.90;99.90;;;;;;5033091;28;20464;-68
2022/03/26 01:10:12;;;;;;;155.77;76.93;;;6.90;99.90;;;;;;5031655;28;20488;-68
2022/03/26 01:12:38;;;;;;;155.05;77.03;;;6.90;99.90;;;;;;5033020;28;20045;-67
2022/03/26 01:15:05;;;;;;;145.40;75.45;;;6.90;99.90;;;;;;5032876;28;20045;-68
2022/03/26 01:17:31;;;;;;;154.40;76.18;;;6.90;99.90;;;;;;5031082;28;20053;-68
2022/03/26 01:19:59;;;;;;;153.05;77.70;;;6.90;99.90;;;;;;5031516;28;20045;-67
2022/03/26 01:22:25;;;;;;;156.07;75.35;;;6.90;99.90;;;;;;5032630;28;20396;-68
2022/03/26 01:24:51;;;;;;;149.48;70.90;;;6.90;99.90;;;;;;5015232;28;20067;-68
2022/03/26 01:27:16;;;;;;;142.45;70.30;;;6.90;99.90;;;;;;5031145;28;20124;-68
2022/03/26 01:29:42;;;;;;;134.05;70.53;;;6.90;99.90;;;;;;5032404;28;20041;-68
2022/03/26 01:32:09;;;;;;;137.98;69.97;;;6.80;99.90;;;;;;5032554;28;20042;-68
2022/03/26 01:34:35;;;;;;;139.70;71.47;;;6.80;99.90;;;;;;5031379;28;20041;-68
2022/03/26 01:37:03;;;;;;;144.23;69.60;;;6.80;99.90;;;;;;5032230;28;20050;-68
2022/03/26 01:39:29;;;;;;;139.30;71.28;;;6.80;99.90;;;;;;5032770;28;20422;-68
2022/03/26 01:42:01;;;;;;;145.18;73.47;;;6.70;99.90;;;;;;5032511;28;20044;-68
2022/03/26 01:44:26;;;;;;;132.82;66.75;;;6.70;99.90;;;;;;5032425;28;20042;-68
2022/03/26 01:46:54;;;;;;;142.00;70.22;;;6.60;99.90;;;;;;5029986;28;20541;-68
2022/03/26 01:49:20;;;;;;;145.30;72.68;;;6.60;99.90;;;;;;5030923;28;20506;-67
2022/03/26 01:51:47;;;;;;;150.35;75.38;;;6.60;99.90;;;;;;5030988;28;20503;-68
2022/03/26 01:54:14;;;;;;;143.60;73.03;;;6.60;99.90;;;;;;5031153;28;20119;-68
2022/03/26 01:56:40;;;;;;;149.52;71.80;;;6.50;99.90;;;;;;5030505;28;20445;-68
2022/03/26 01:59:07;;;;;;;140.18;70.32;;;6.50;99.90;;;;;;5032065;28;20049;-68
2022/03/26 02:01:33;;;;;;;144.02;70.85;;;6.50;99.90;;;;;;5032058;28;20049;-68
2022/03/26 02:04:03;;;;;;;139.55;71.78;;;6.50;99.90;;;;;;5032338;28;20040;-68
2022/03/26 02:06:33;;;;;;;138.52;69.82;;;6.40;99.90;;;;;;5030393;28;20037;-68
2022/03/26 02:09:14;;;;;;;136.95;69.03;;;6.40;99.90;;;;;;5014300;28;20095;-68
2022/03/26 02:11:42;;;;;;;139.65;68.53;;;6.40;99.90;;;;;;5031937;28;20522;-68
2022/03/26 02:14:08;;;;;;;142.30;67.82;;;6.40;99.90;;;;;;5014181;28;20503;-68
2022/03/26 02:16:36;;;;;;;126.63;64.75;;;6.40;99.90;;;;;;5031467;28;20510;-68
2022/03/26 02:19:04;;;;;;;121.28;61.97;;;6.40;99.90;;;;;;5030356;28;20045;-68
2022/03/26 02:21:30;;;;;;;115.45;61.50;;;6.40;99.90;;;;;;5030569;28;20038;-68
2022/03/26 02:23:56;;;;;;;115.88;61.55;;;6.30;99.90;;;;;;5030453;28;20045;-68
2022/03/26 02:26:26;;;;;;;123.65;59.35;;;6.30;99.90;;;;;;5030516;28;20442;-68
2022/03/26 02:28:52;;;;;;;123.10;61.00;;;6.30;99.90;;;;;;5031614;28;20584;-68
2022/03/26 02:31:18;;;;;;;121.05;62.78;;;6.30;99.90;;;;;;5030493;28;20049;-68
2022/03/26 02:33:44;;;;;;;127.25;66.63;;;6.30;99.90;;;;;;5030432;28;20087;-68
2022/03/26 02:36:10;;;;;;;136.25;67.13;;;6.20;99.90;;;;;;5030017;28;20388;-68
2022/03/26 02:38:37;;;;;;;135.90;66.93;;;6.20;99.90;;;;;;5030555;28;20041;-69
2022/03/26 02:41:03;;;;;;;125.65;64.53;;;6.20;99.90;;;;;;5031583;28;20530;-68
2022/03/26 02:43:29;;;;;;;128.63;64.30;;;6.20;99.90;;;;;;5030626;28;20414;-68
2022/03/26 02:45:55;;;;;;;144.00;68.72;;;6.30;99.90;;;;;;5029530;28;20049;-68
2022/03/26 02:48:20;;;;;;;134.77;67.65;;;6.20;99.90;;;;;;5030104;28;20046;-68
2022/03/26 02:50:46;;;;;;;136.40;66.53;;;6.20;99.90;;;;;;5031632;28;20041;-68
2022/03/26 02:53:12;;;;;;;143.82;71.75;;;6.20;99.90;;;;;;5030603;28;20049;-68
2022/03/26 02:55:38;;;;;;;143.95;72.38;;;6.20;99.90;;;;;;5013492;28;20526;-68
2022/03/26 02:58:05;;;;;;;153.63;72.07;;;6.20;99.90;;;;;;5033657;28;20126;-68
2022/03/26 03:00:31;;;;;;;144.32;68.97;;;6.20;99.90;;;;;;5035444;28;20041;-68
2022/03/26 03:02:57;;;;;;;146.13;70.78;;;6.10;99.90;;;;;;5034112;28;20105;-68
2022/03/26 03:05:23;;;;;;;143.35;70.65;;;6.10;99.90;;;;;;5035126;28;20045;-68
2022/03/26 03:07:48;;;;;;;152.52;75.57;;;6.10;99.90;;;;;;5017478;28;20045;-68
2022/03/26 03:10:15;;;;;;;155.73;75.00;;;6.10;99.90;;;;;;5035261;28;20450;-68
2022/03/26 03:12:48;;;;;;;157.25;75.38;;;6.10;99.90;;;;;;5017410;28;20073;-68
2022/03/26 03:15:18;;;;;;;166.00;77.18;;;6.00;99.90;;;;;;5033877;28;20033;-68
2022/03/26 03:17:47;;;;;;;160.95;75.03;;;6.00;99.90;;;;;;5016973;28;20038;-68
2022/03/26 03:20:14;;;;;;;163.85;78.60;;;6.00;99.90;;;;;;5035132;28;20095;-68
2022/03/26 03:22:41;;;;;;;155.30;77.65;;;6.00;99.90;;;;;;5033888;28;20033;-68
2022/03/26 03:25:07;;;;;;;154.48;76.43;;;5.90;99.90;;;;;;5034946;28;20045;-68
2022/03/26 03:27:33;;;;;;;166.40;75.88;;;6.00;99.90;;;;;;5034358;28;20043;-69
2022/03/26 03:29:59;;;;;;;169.43;80.57;;;6.00;99.90;;;;;;5035040;28;20037;-68
2022/03/26 03:32:24;;;;;;;175.95;80.53;;;6.00;99.90;;;;;;5034854;28;20117;-68
2022/03/26 03:34:51;;;;;;;169.10;81.35;;;6.00;99.90;;;;;;5033697;28;20502;-68
2022/03/26 03:37:17;;;;;;;159.48;75.22;;;6.00;99.90;;;;;;5033205;28;20536;-68
2022/03/26 03:39:42;;;;;;;155.55;77.20;;;6.00;99.90;;;;;;5034595;28;20410;-68
2022/03/26 03:42:09;;;;;;;161.60;77.85;;;6.00;99.90;;;;;;5033425;28;20037;-68
2022/03/26 03:44:35;;;;;;;153.48;79.03;;;6.00;99.90;;;;;;5034639;28;20155;-68
2022/03/26 03:47:02;;;;;;;162.65;77.28;;;6.00;99.90;;;;;;5032871;28;20049;-68
2022/03/26 03:49:31;;;;;;;160.27;79.30;;;6.00;99.90;;;;;;5033083;28;20049;-68
2022/03/26 03:52:00;;;;;;;175.10;82.65;;;5.90;99.90;;;;;;5034470;28;20115;-68
2022/03/26 03:54:26;;;;;;;158.45;75.82;;;5.90;99.90;;;;;;5034413;28;20511;-68
2022/03/26 03:56:52;;;;;;;162.30;76.85;;;5.80;99.90;;;;;;5032769;28;20052;-68
2022/03/26 03:59:18;;;;;;;173.32;81.65;;;5.90;99.90;;;;;;5033267;28;20037;-68
2022/03/26 04:01:43;;;;;;;176.93;84.93;;;5.80;99.90;;;;;;5032961;28;20073;-68
2022/03/26 04:04:09;;;;;;;191.27;84.97;;;5.70;99.90;;;;;;5034321;28;20503;-68
2022/03/26 04:06:35;;;;;;;178.10;82.53;;;5.70;99.90;;;;;;5032528;28;20048;-69
2022/03/26 04:09:00;;;;;;;182.07;83.82;;;5.70;99.90;;;;;;5033175;28;20040;-69
2022/03/26 04:11:26;;;;;;;179.05;84.32;;;5.70;99.90;;;;;;5033089;28;20052;-69
2022/03/26 04:13:53;;;;;;;189.82;85.72;;;5.70;99.90;;;;;;5034124;28;20048;-69
2022/03/26 04:16:22;;;;;;;187.90;88.65;;;5.70;99.90;;;;;;5032280;28;20045;-68
2022/03/26 04:18:48;;;;;;;185.82;88.00;;;5.70;99.90;;;;;;5081499;22;20067;-68
2022/03/26 04:21:14;;;;;;;183.80;85.38;;;5.70;99.90;;;;;;5094037;28;20505;-68
2022/03/26 04:23:41;;;;;;;188.93;84.70;;;5.70;99.90;;;;;;5093986;28;20542;-68
2022/03/26 04:26:08;;;;;;;197.00;89.70;;;5.70;99.90;;;;;;5093704;28;20040;-69
2022/03/26 04:28:33;;;;;;;196.18;88.03;;;5.70;99.90;;;;;;5092968;28;20040;-68
2022/03/26 04:30:59;;;;;;;181.60;83.82;;;5.70;99.90;;;;;;5093450;28;20046;-68
2022/03/26 04:33:24;;;;;;;175.57;80.78;;;5.70;99.90;;;;;;5075651;28;20048;-68
2022/03/26 04:35:50;;;;;;;165.93;81.57;;;5.70;99.90;;;;;;5093557;28;20032;-68
2022/03/26 04:38:16;;;;;;;170.98;83.45;;;5.70;99.90;;;;;;5075558;28;20064;-68
2022/03/26 04:40:41;;;;;;;180.20;83.63;;;5.70;99.90;;;;;;5093784;28;20111;-68
2022/03/26 04:43:07;;;;;;;177.00;83.65;;;5.70;99.90;;;;;;5075503;28;20036;-68
2022/03/26 04:45:33;;;;;;;165.32;77.22;;;5.80;99.90;;;;;;5093454;28;20401;-68
2022/03/26 04:47:59;;;;;;;181.77;84.60;;;5.80;99.90;;;;;;5093597;28;20131;-68
2022/03/26 04:50:26;;;;;;;185.77;85.18;;;5.80;99.90;;;;;;5075379;28;20086;-68
2022/03/26 04:52:52;;;;;;;176.30;83.78;;;5.70;99.90;;;;;;5075243;28;20085;-68
2022/03/26 04:55:18;;;;;;;182.02;83.05;;;5.70;99.90;;;;;;5093043;28;20051;-68
2022/03/26 04:57:47;;;;;;;175.45;83.10;;;5.70;99.90;;;;;;5075071;28;20048;-68
2022/03/26 05:00:15;;;;;;;181.60;85.38;;;5.70;99.90;;;;;;5075173;28;20119;-68
2022/03/26 05:02:41;;;;;;;171.77;82.72;;;5.70;99.90;;;;;;5093219;28;20040;-68
2022/03/26 05:05:08;;;;;;;188.90;84.43;;;5.70;99.90;;;;;;5093255;28;20111;-68
2022/03/26 05:07:46;;;;;;;176.02;79.38;;;5.70;99.90;;;;;;5092835;28;20044;-68
2022/03/26 05:10:18;;;;;;;173.57;84.13;;;5.70;99.90;;;;;;5075027;28;20097;-68
2022/03/26 05:12:45;;;;;;;185.87;83.70;;;5.70;99.90;;;;;;5075175;28;20048;-68
2022/03/26 05:15:12;;;;;;;191.02;88.43;;;5.60;99.90;;;;;;5092958;28;20103;-68
2022/03/26 05:17:38;;;;;;;199.27;90.93;;;5.60;99.90;;;;;;5092766;28;20051;-68
2022/03/26 05:20:05;;;;;;;205.85;93.22;;;5.60;99.90;;;;;;5074550;28;20044;-68
2022/03/26 05:22:31;;;;;;;203.63;91.00;;;5.60;99.90;;;;;;5092546;28;20047;-68
2022/03/26 05:24:56;;;;;;;199.20;91.65;;;5.60;99.90;;;;;;5093010;28;20055;-68
2022/03/26 05:27:22;;;;;;;199.68;91.93;;;5.50;99.90;;;;;;5074252;28;20039;-68
2022/03/26 05:29:49;;;;;;;208.73;93.35;;;5.60;99.90;;;;;;5074481;28;20044;-68
2022/03/26 05:32:15;;;;;;;214.60;92.53;;;5.50;99.90;;;;;;5092844;28;20040;-68
2022/03/26 05:34:41;;;;;;;214.35;95.05;;;5.60;99.90;;;;;;5092755;28;20072;-68
2022/03/26 05:37:07;;;;;;;215.18;90.78;;;5.60;99.90;;;;;;5092131;28;20072;-68
2022/03/26 05:39:33;;;;;;;208.05;92.68;;;5.50;99.90;;;;;;5092587;28;20036;-68
2022/03/26 05:41:58;;;;;;;195.70;90.43;;;5.60;99.90;;;;;;5092521;28;20446;-68
2022/03/26 05:44:24;;;;;;;194.82;88.78;;;5.60;99.90;;;;;;5092563;28;20028;-68
2022/03/26 05:46:50;;;;;;;215.68;97.60;;;5.60;99.90;;;;;;5092083;28;20501;-68
2022/03/26 05:49:16;;;;;;;217.57;94.55;;;5.60;99.90;;;;;;5092312;28;20047;-68
2022/03/26 05:51:43;;;;;;;191.57;89.47;;;5.60;99.90;;;;;;5092285;28;20071;-68
2022/03/26 05:54:08;;;;;;;205.30;91.53;;;5.70;99.90;;;;;;5092218;28;20489;-68
2022/03/26 05:56:36;;;;;;;194.20;86.50;;;5.70;99.90;;;;;;5092111;28;20043;-68
2022/03/26 05:59:09;;;;;;;194.68;91.03;;;5.80;99.90;;;;;;5074002;28;20100;-68
2022/03/26 06:01:35;;;;;;;193.88;88.88;;;5.80;99.90;;;;;;5092333;28;20032;-68
2022/03/26 06:04:01;;;;;;;199.32;93.28;;;5.80;99.90;;;;;;5092189;28;20039;-68
2022/03/26 06:06:27;;;;;;;190.35;87.35;;;5.80;99.90;;;;;;5091789;28;20512;-68
2022/03/26 06:08:53;;;;;;;202.48;88.68;;;5.90;99.90;;;;;;5091983;28;20032;-68
2022/03/26 06:11:18;;;;;;;200.15;91.28;;;5.90;99.90;;;;;;5092221;28;20115;-68
2022/03/26 06:13:44;;;;;;;199.00;92.03;;;6.00;99.90;;;;;;5092096;28;20493;-68
2022/03/26 06:16:10;;;;;;;203.18;92.10;;;6.00;99.90;;;;;;5091735;28;20094;-68
2022/03/26 06:18:36;;;;;;;197.20;89.22;;;6.00;99.90;;;;;;5091834;28;20036;-68
2022/03/26 06:21:05;;;;;;;199.57;90.90;;;6.10;99.90;;;;;;5091679;28;20046;-68
2022/03/26 06:23:31;;;;;;;199.75;88.47;;;6.20;99.90;;;;;;5091878;28;20504;-68
2022/03/26 06:25:57;;;;;;;199.80;87.93;;;6.30;99.90;;;;;;5091741;28;20428;-68
2022/03/26 06:28:22;;;;;;;197.02;88.32;;;6.40;99.90;;;;;;5091572;28;20089;-68
2022/03/26 06:30:48;;;;;;;198.88;90.72;;;6.50;99.90;;;;;;5091903;28;20043;-68
2022/03/26 06:33:18;;;;;;;197.23;89.07;;;6.70;99.90;;;;;;5091084;28;20413;-68
2022/03/26 06:35:44;;;;;;;184.20;86.07;;;6.90;99.90;;;;;;5091380;28;20039;-68
2022/03/26 06:38:10;;;;;;;175.90;82.05;;;7.10;99.90;;;;;;5091832;28;20048;-69
2022/03/26 06:40:39;;;;;;;175.60;82.45;;;7.30;99.90;;;;;;5091809;28;20032;-68
2022/03/26 06:43:07;;;;;;;161.95;81.38;;;7.50;99.90;;;;;;5091539;28;20043;-68
2022/03/26 06:45:33;;;;;;;173.55;82.28;;;7.70;99.90;;;;;;5091397;28;20036;-68
2022/03/26 06:47:58;;;;;;;180.05;83.57;;;7.90;99.90;;;;;;5091577;28;20070;-68
2022/03/26 06:50:24;;;;;;;169.82;79.78;;;8.00;99.90;;;;;;5091732;28;20036;-68
2022/03/26 06:52:50;;;;;;;170.90;82.18;;;8.20;99.90;;;;;;5091802;28;20599;-68
2022/03/26 06:55:16;;;;;;;158.32;79.78;;;8.40;99.90;;;;;;5073112;28;20486;-68
2022/03/26 06:57:42;;;;;;;155.70;77.05;;;8.50;99.90;;;;;;5073314;28;20044;-68
2022/03/26 07:00:11;;;;;;;152.18;77.00;;;8.70;99.90;;;;;;5073293;28;20131;-68
2022/03/26 07:02:37;;;;;;;162.82;78.13;;;8.90;99.90;;;;;;5091263;28;20505;-68
2022/03/26 07:05:04;;;;;;;151.23;75.50;;;9.00;99.90;;;;;;5091622;28;20075;-69
2022/03/26 07:07:30;;;;;;;153.98;74.07;;;9.30;99.90;;;;;;5091329;28;20063;-70
2022/03/26 07:09:57;;;;;;;140.95;71.85;;;9.40;99.90;;;;;;5073456;28;20058;-69
2022/03/26 07:12:22;;;;;;;147.50;73.32;;;9.60;99.90;;;;;;5091393;28;20370;-70
2022/03/26 07:14:48;;;;;;;134.85;73.38;;;9.80;99.90;;;;;;5091511;28;20039;-70
2022/03/26 07:17:16;;;;;;;139.40;72.00;;;10.00;99.90;;;;;;5090980;28;20032;-70
2022/03/26 07:19:42;;;;;;;136.45;69.95;;;10.20;99.90;;;;;;5091149;28;20493;-70
2022/03/26 07:22:07;;;;;;;130.48;71.55;;;10.30;99.90;;;;;;5073421;28;20040;-70
2022/03/26 07:24:33;;;;;;;130.27;68.25;;;10.60;99.90;;;;;;5091336;28;20077;-70
2022/03/26 07:26:58;;;;;;;119.80;65.72;;;10.80;99.90;;;;;;5090934;28;20127;-70
2022/03/26 07:29:24;;;;;;;124.72;66.20;;;10.80;99.90;;;;;;5073014;28;20481;-70
2022/03/26 07:31:49;;;;;;;118.07;66.40;;;11.00;99.90;;;;;;5073002;28;20105;-70
2022/03/26 07:34:16;;;;;;;113.85;63.00;;;11.10;99.90;;;;;;5073254;28;20185;-69
2022/03/26 07:36:42;;;;;;;117.95;62.53;;;11.30;99.90;;;;;;5087597;28;20547;-69
2022/03/26 07:39:07;;;;;;;118.10;60.53;;;11.40;99.90;;;;;;5053015;28;20036;-66
2022/03/26 07:41:33;;;;;;;112.85;59.22;;;11.50;99.90;;;;;;5070927;28;20082;-69
2022/03/26 07:43:59;;;;;;;112.57;59.85;;;11.60;99.90;;;;;;5071202;28;20115;-69
2022/03/26 07:46:25;;;;;;;104.72;59.97;;;11.80;99.90;;;;;;5074120;28;20128;-69
2022/03/26 07:48:51;;;;;;;110.72;58.28;;;11.90;99.90;;;;;;5074477;28;20123;-69
2022/03/26 07:51:16;;;;;;;108.22;60.53;;;12.10;99.90;;;;;;5056572;28;20111;-69
2022/03/26 07:53:42;;;;;;;103.18;57.88;;;12.20;99.90;;;;;;5074343;28;20078;-69
2022/03/26 07:56:08;;;;;;;103.68;57.05;;;12.30;99.90;;;;;;5056010;28;20070;-70
2022/03/26 07:58:33;;;;;;;106.43;58.25;;;12.40;99.90;;;;;;5056232;28;20513;-70
2022/03/26 08:00:59;;;;;;;107.82;55.35;;;12.60;99.90;;;;;;5074124;28;20072;-70
2022/03/26 08:03:24;;;;;;;102.90;55.33;;;12.70;99.90;;;;;;5074336;28;20044;-70
2022/03/26 08:05:50;;;;;;;102.78;52.65;;;12.80;99.00;;;;;;5073729;28;20035;-70
2022/03/26 08:08:16;;;;;;;97.40;54.00;;;12.90;98.40;;;;;;5056210;28;20040;-70
2022/03/26 08:10:41;;;;;;;97.30;56.28;;;13.10;98.80;;;;;;5056120;28;20037;-69
2022/03/26 08:13:07;;;;;;;93.85;51.97;;;13.10;97.10;;;;;;5073918;28;20032;-69
2022/03/26 08:15:33;;;;;;;90.97;50.20;;;13.10;96.30;;;;;;5073390;28;20037;-70
2022/03/26 08:18:02;;;;;;;88.50;51.40;;;13.20;96.70;;;;;;5078459;28;20043;-70
2022/03/26 08:20:28;;;;;;;87.72;49.28;;;13.30;96.90;;;;;;5073857;28;20048;-69
2022/03/26 08:22:54;;;;;;;85.32;46.30;;;13.50;95.90;;;;;;5073735;28;20502;-69
2022/03/26 08:28:05;;;;;;;84.47;45.55;;;13.80;95.40;;;;;;5073052;28;20056;-70
2022/03/26 08:30:32;;;;;;;73.78;40.03;;;14.00;94.10;;;;;;5055531;28;20036;-70
2022/03/26 08:33:00;;;;;;;70.28;39.08;;;14.20;93.20;;;;;;5055622;28;20494;-70
2022/03/26 08:35:26;;;;;;;64.05;36.67;;;14.30;92.40;;;;;;5073156;28;20347;-70
2022/03/26 08:37:51;;;;;;;65.88;38.03;;;14.50;92.20;;;;;;5054578;28;20055;-70
2022/03/26 08:40:17;;;;;;;57.58;35.20;;;14.30;91.80;;;;;;5055073;28;20032;-71
2022/03/26 08:42:42;;;;;;;53.00;31.75;;;14.60;91.50;;;;;;5072969;28;20040;-71
2022/03/26 08:45:08;;;;;;;52.10;33.80;;;14.70;90.00;;;;;;5072912;28;20106;-72
2022/03/26 08:47:34;;;;;;;49.30;33.03;;;14.40;91.10;;;;;;5072610;28;20451;-71
2022/03/26 08:49:59;;;;;;;51.92;33.45;;;14.40;91.60;;;;;;5073196;28;20051;-71
2022/03/26 08:52:25;;;;;;;47.80;29.85;;;14.40;91.40;;;;;;5073139;28;20037;-71
2022/03/26 08:54:51;;;;;;;58.58;32.13;;;14.50;91.70;;;;;;5072917;28;20051;-72
2022/03/26 08:57:16;;;;;;;44.97;29.63;;;14.70;91.60;;;;;;5072636;28;20049;-72
2022/03/26 08:59:42;;;;;;;46.90;28.35;;;14.60;90.60;;;;;;5073004;28;20037;-71
2022/03/26 09:02:07;;;;;;;47.25;29.63;;;14.60;90.50;;;;;;5073192;28;20043;-71
2022/03/26 09:04:33;;;;;;;48.60;31.33;;;14.50;90.20;;;;;;5055330;28;20040;-72
2022/03/26 09:06:59;;;;;;;55.15;32.85;;;14.40;91.40;;;;;;5072659;28;20493;-72
2022/03/26 09:09:24;;;;;;;52.53;32.47;;;14.40;91.80;;;;;;5072731;28;20040;-72
2022/03/26 09:11:50;;;;;;;54.63;30.33;;;14.60;91.20;;;;;;5072589;28;20095;-71
2022/03/26 09:14:15;;;;;;;47.53;30.02;;;14.50;91.50;;;;;;5072879;28;20457;-71
2022/03/26 09:16:41;;;;;;;53.38;33.97;;;14.70;91.20;;;;;;5071830;28;20413;-71
2022/03/26 09:19:06;;;;;;;52.08;32.47;;;14.70;91.70;;;;;;5072450;28;20070;-71
2022/03/26 09:21:32;;;;;;;59.20;33.63;;;14.50;92.10;;;;;;5071809;28;20033;-71
2022/03/26 09:23:57;;;;;;;55.00;33.50;;;14.70;92.30;;;;;;5072336;28;20398;-71
2022/03/26 09:26:23;;;;;;;56.65;33.30;;;14.80;92.60;;;;;;5072039;28;20040;-72
2022/03/26 09:28:48;;;;;;;51.50;32.33;;;14.90;92.00;;;;;;5074709;28;20046;-72
2022/03/26 09:31:14;;;;;;;50.40;32.78;;;15.00;92.70;;;;;;5081353;28;20040;-72
2022/03/26 09:33:40;;;;;;;56.80;33.85;;;14.70;91.70;;;;;;5082809;28;20040;-72
2022/03/26 09:36:05;;;;;;;49.80;32.65;;;14.90;92.60;;;;;;5054125;28;20409;-72
2022/03/26 09:38:31;;;;;;;51.50;30.48;;;14.80;91.80;;;;;;5077337;28;20036;-72
2022/03/26 09:40:57;;;;;;;47.90;27.27;;;14.80;91.40;;;;;;5074543;28;20044;-72
2022/03/26 09:43:23;;;;;;;41.80;26.10;;;14.80;90.70;;;;;;5077654;28;20040;-71
2022/03/26 09:45:49;;;;;;;38.88;22.63;;;14.70;88.40;;;;;;5080084;28;20036;-72
2022/03/26 09:48:14;;;;;;;41.97;24.52;;;14.70;86.10;;;;;;5054035;28;20371;-71
2022/03/26 09:50:42;;;;;;;39.55;24.73;;;14.80;87.00;;;;;;5086895;28;20600;-71
2022/03/26 09:53:11;;;;;;;32.17;19.55;;;14.80;86.30;;;;;;5092357;28;20044;-71
2022/03/26 09:55:38;;;;;;;31.98;19.80;;;14.90;85.90;;;;;;5073762;28;20044;-72
2022/03/26 09:58:04;;;;;;;32.10;18.85;;;14.80;83.10;;;;;;5092294;28;20036;-71
2022/03/26 10:00:29;;;;;;;32.85;20.85;;;14.90;83.40;;;;;;5074058;28;20113;-71
2022/03/26 10:02:55;;;;;;;31.58;20.50;;;14.70;82.90;;;;;;5092332;28;20036;-71
2022/03/26 10:05:21;;;;;;;31.85;20.27;;;14.80;83.80;;;;;;5091993;28;20505;-71
2022/03/26 10:07:50;;;;;;;30.08;18.42;;;14.80;84.30;;;;;;5091163;28;20040;-71
2022/03/26 10:10:23;;;;;;;26.30;16.30;;;15.00;83.80;;;;;;5083336;28;20039;-71
2022/03/26 10:12:51;;;;;;;24.20;14.75;;;14.90;79.70;;;;;;5092131;28;20054;-72
2022/03/26 10:15:17;;;;;;;21.17;13.02;;;14.90;80.30;;;;;;5091849;28;20097;-71
2022/03/26 10:17:43;;;;;;;24.02;14.18;;;14.90;79.60;;;;;;5091862;28;20032;-72
2022/03/26 10:20:14;;;;;;;27.27;15.65;;;14.80;79.00;;;;;;5096920;22;20044;-76
2022/03/26 10:22:41;;;;;;;23.05;13.48;;;14.80;78.90;;;;;;5072091;28;20044;-77
2022/03/26 10:25:13;;;;;;;22.27;14.27;;;14.90;79.40;;;;;;5054001;28;20087;-77
2022/03/26 10:27:45;;;;;;;21.23;14.52;;;15.00;79.30;;;;;;5070639;28;20513;-77
2022/03/26 10:30:13;;;;;;;19.13;12.80;;;15.00;79.00;;;;;;5069503;28;20126;-77
2022/03/26 10:32:49;;;;;;;19.85;12.82;;;14.90;77.40;;;;;;5070541;28;20608;-77
2022/03/26 10:35:16;;;;;;;17.25;11.13;;;15.00;75.70;;;;;;5070822;28;20126;-76
2022/03/26 10:37:58;;;;;;;15.77;10.35;;;15.00;76.10;;;;;;5070538;28;20053;-77
2022/03/26 10:40:25;;;;;;;17.67;10.98;;;15.10;75.30;;;;;;5070360;28;20047;-76
2022/03/26 10:43:03;;;;;;;17.38;10.35;;;14.90;73.40;;;;;;5070715;28;20047;-77
2022/03/26 10:45:31;;;;;;;16.88;11.60;;;15.00;74.20;;;;;;5069996;28;20040;-76
2022/03/26 10:47:59;;;;;;;18.60;10.65;;;15.00;74.40;;;;;;5070656;28;20406;-77
2022/03/26 10:50:30;;;;;;;15.15;10.30;;;15.00;73.60;;;;;;5070376;28;20090;-77
2022/03/26 10:52:56;;;;;;;17.55;10.55;;;14.90;72.90;;;;;;5070544;28;20044;-77
2022/03/26 10:55:23;;;;;;;14.13;9.65;;;14.90;73.80;;;;;;5070091;28;20036;-77
2022/03/26 10:57:49;;;;;;;15.38;9.40;;;14.80;72.30;;;;;;5070044;28;20036;-77
2022/03/26 11:00:17;;;;;;;12.80;8.82;;;14.80;73.20;;;;;;5070383;28;20101;-76
2022/03/26 11:02:44;;;;;;;12.57;8.82;;;14.80;73.10;;;;;;5070176;28;20040;-77
2022/03/26 11:05:10;;;;;;;15.90;8.85;;;14.90;73.90;;;;;;5071846;28;20115;-75
2022/03/26 11:07:37;;;;;;;12.80;8.35;;;15.20;73.60;;;;;;5071664;28;20050;-75
2022/03/26 11:10:08;;;;;;;14.45;9.05;;;15.20;72.10;;;;;;5068890;28;20068;-75
2022/03/26 11:12:35;;;;;;;16.08;10.50;;;15.40;71.90;;;;;;5071308;28;20051;-75
2022/03/26 11:15:04;;;;;;;16.95;10.13;;;15.40;71.50;;;;;;5070783;28;20044;-75
2022/03/26 11:17:51;;;;;;;16.27;9.18;;;15.20;71.40;;;;;;5071410;28;20467;-75
2022/03/26 11:20:33;;;;;;;16.00;10.65;;;15.20;71.50;;;;;;5074464;28;20048;-75
2022/03/26 11:23:22;;;;;;;16.95;8.63;;;15.10;71.90;;;;;;5075685;28;20112;-75
2022/03/26 11:26:14;;;;;;;14.98;8.13;;;15.20;71.50;;;;;;5058082;28;20124;-75
2022/03/26 11:29:10;;;;;;;12.65;9.07;;;15.30;72.40;;;;;;5054864;28;20033;-75
2022/03/26 11:32:06;;;;;;;13.98;7.75;;;15.20;70.90;;;;;;5016377;28;20091;-75
2022/03/26 11:34:36;;;;;;;11.68;7.90;;;15.30;72.10;;;;;;5038544;28;20463;-74
2022/03/26 11:37:22;;;;;;;13.32;9.27;;;15.20;72.00;;;;;;5055721;28;20414;-74
2022/03/26 11:39:51;;;;;;;11.48;7.05;;;15.20;71.50;;;;;;5056054;28;20037;-74
2022/03/26 11:42:37;;;;;;;13.85;6.93;;;15.20;71.30;;;;;;5058526;28;20090;-74
2022/03/26 11:51:19;;;;;;;7.68;5.72;;;15.30;69.50;;;;;;5055150;28;20128;-75
2022/03/26 11:53:48;;;;;;;9.02;4.72;;;15.50;69.70;;;;;;5039606;28;20040;-75
2022/03/26 11:56:26;;;;;;;10.60;7.20;;;15.60;70.00;;;;;;5056987;28;20068;-75
2022/03/26 11:59:17;;;;;;;8.75;5.30;;;15.80;69.90;;;;;;5038539;28;20033;-75
2022/03/26 12:01:45;;;;;;;9.02;6.22;;;15.90;68.10;;;;;;5056711;28;20044;-75
2022/03/26 12:04:18;;;;;;;9.80;6.22;;;15.80;68.30;;;;;;5074191;28;20028;-75
2022/03/26 12:06:53;;;;;;;10.13;5.80;;;15.80;67.50;;;;;;5077251;28;20051;-75
2022/03/26 12:09:36;;;;;;;8.65;6.68;;;15.70;67.30;;;;;;5078218;28;20119;-75
2022/03/26 12:12:05;;;;;;;11.82;6.30;;;15.70;68.60;;;;;;5060334;28;20040;-75
2022/03/26 12:14:35;;;;;;;12.75;8.60;;;15.80;68.90;;;;;;5059393;28;20421;-74
2022/03/26 12:17:03;;;;;;;17.58;6.93;;;15.80;70.50;;;;;;5062296;28;20064;-74
2022/03/26 12:19:39;;;;;;;9.60;7.20;;;15.70;72.30;;;;;;5049453;28;20047;-74
2022/03/26 12:22:26;;;;;;;10.02;6.03;;;15.60;72.60;;;;;;5075991;28;20040;-75
2022/03/26 12:24:56;;;;;;;6.40;4.70;;;15.30;73.10;;;;;;5074604;28;20391;-74
2022/03/26 12:27:23;;;;;;;8.90;5.32;;;15.20;73.90;;;;;;5074946;28;20047;-75
2022/03/26 12:29:52;;;;;;;7.70;4.32;;;15.20;74.60;;;;;;5073867;28;20037;-75
2022/03/26 12:32:18;;;;;;;6.30;4.63;;;15.00;73.60;;;;;;5076008;28;20047;-75
2022/03/26 12:35:10;;;;;;;7.90;4.85;;;15.00;75.70;;;;;;5075128;28;20075;-75
2022/03/26 12:37:37;;;;;;;9.05;5.38;;;14.80;76.60;;;;;;5073097;28;20060;-75
2022/03/26 12:40:07;;;;;;;8.13;4.53;;;14.80;78.50;;;;;;5075338;28;20072;-74